createdAt,value
2017-11-28T00:01:14.253Z,2.20
2017-11-28T00:03:42.089Z,3.10
2017-11-28T00:06:10.300Z,2.37
2017-11-28T00:08:38.137Z,3.20
2017-11-28T00:11:06.952Z,2.20
2017-11-28T00:13:34.961Z,2.30
2017-11-28T00:16:02.919Z,2.23
2017-11-28T00:18:30.361Z,2.27
2017-11-28T00:20:57.823Z,1.70
2017-11-28T00:23:25.299Z,2.63
2017-11-28T00:25:53.533Z,3.07
2017-11-28T00:28:21.638Z,2.50
2017-11-28T00:30:49.098Z,2.80
2017-11-28T00:33:17.492Z,3.03
2017-11-28T00:35:45.000Z,3.20
2017-11-28T00:38:12.462Z,3.07
2017-11-28T00:40:40.553Z,3.30
2017-11-28T00:43:08.439Z,3.70
2017-11-28T00:45:36.387Z,2.90
2017-11-28T00:48:03.916Z,3.77
2017-11-28T00:50:31.359Z,3.63
2017-11-28T00:52:58.907Z,3.93
2017-11-28T00:55:27.129Z,3.50
2017-11-28T00:57:55.209Z,3.97
2017-11-28T01:00:22.677Z,3.23
2017-11-28T01:02:50.874Z,3.60
2017-11-28T01:05:19.097Z,3.40
2017-11-28T01:07:46.568Z,3.77
2017-11-28T01:10:14.007Z,3.63
2017-11-28T01:12:41.994Z,3.77
2017-11-28T01:15:09.710Z,3.80
2017-11-28T01:17:37.727Z,3.90
2017-11-28T01:20:05.192Z,3.80
2017-11-28T01:22:32.709Z,3.43
2017-11-28T01:25:00.575Z,4.17
2017-11-28T01:27:28.038Z,4.03
2017-11-28T01:29:55.531Z,3.20
2017-11-28T01:32:23.006Z,3.87
2017-11-28T01:34:51.211Z,3.70
2017-11-28T01:37:19.123Z,3.70
2017-11-28T01:39:46.560Z,8.70
2017-11-28T01:42:14.547Z,4.90
2017-11-28T01:44:42.408Z,5.43
2017-11-28T01:47:09.880Z,3.17
2017-11-28T01:49:37.414Z,3.50
2017-11-28T01:52:04.853Z,4.37
2017-11-28T01:54:32.336Z,4.00
2017-11-28T01:56:59.817Z,4.77
2017-11-28T01:59:27.762Z,3.70
2017-11-28T02:01:56.346Z,3.27
2017-11-28T02:04:23.898Z,3.90
2017-11-28T02:06:51.332Z,3.83
2017-11-28T02:09:18.798Z,3.73
2017-11-28T02:11:46.250Z,3.83
2017-11-28T02:14:14.347Z,3.67
2017-11-28T02:16:41.810Z,3.50
2017-11-28T02:19:09.670Z,3.87
2017-11-28T02:21:37.579Z,3.53
2017-11-28T02:24:05.055Z,3.80
2017-11-28T02:26:32.518Z,3.40
2017-11-28T02:29:00.152Z,3.23
2017-11-28T02:31:28.353Z,3.20
2017-11-28T02:33:55.835Z,3.30
2017-11-28T02:36:23.407Z,3.30
2017-11-28T02:38:50.870Z,3.67
2017-11-28T02:41:18.714Z,3.10
2017-11-28T02:43:46.587Z,3.40
2017-11-28T02:46:17.493Z,2.60
2017-11-28T02:48:47.100Z,3.30
2017-11-28T02:51:14.535Z,2.60
2017-11-28T02:53:42.248Z,2.90
2017-11-28T02:56:11.348Z,2.23
2017-11-28T02:58:45.893Z,2.50
2017-11-28T03:01:16.366Z,2.40
2017-11-28T03:03:43.863Z,2.73
2017-11-28T03:06:12.064Z,3.10
2017-11-28T03:08:40.283Z,2.90
2017-11-28T03:11:07.850Z,2.07
2017-11-28T03:13:35.354Z,2.90
2017-11-28T03:16:07.878Z,2.70
2017-11-28T03:18:41.588Z,3.20
2017-11-28T03:21:11.781Z,3.17
2017-11-28T03:23:45.008Z,2.87
2017-11-28T03:26:12.543Z,3.43
2017-11-28T03:28:53.606Z,3.60
2017-11-28T03:31:21.985Z,3.83
2017-11-28T03:33:49.645Z,4.20
2017-11-28T03:36:17.309Z,3.80
2017-11-28T03:38:44.793Z,4.43
2017-11-28T03:41:12.962Z,4.57
2017-11-28T03:43:40.597Z,4.20
2017-11-28T03:46:22.323Z,5.77
2017-11-28T03:48:50.293Z,5.17
2017-11-28T03:51:17.778Z,6.07
2017-11-28T03:53:46.032Z,6.00
2017-11-28T03:56:13.472Z,6.50
2017-11-28T03:58:41.624Z,5.93
2017-11-28T04:01:09.060Z,6.97
2017-11-28T04:03:36.761Z,6.97
2017-11-28T04:06:04.204Z,6.13
2017-11-28T04:08:31.667Z,7.40
2017-11-28T04:11:00.432Z,7.83
2017-11-28T04:13:27.872Z,8.00
2017-11-28T04:15:55.766Z,7.90
2017-11-28T04:18:23.653Z,7.87
2017-11-28T04:20:51.094Z,7.50
2017-11-28T04:23:18.971Z,8.00
2017-11-28T04:25:46.406Z,15.57
2017-11-28T04:28:13.874Z,12.93
2017-11-28T04:30:41.394Z,7.77
2017-11-28T04:33:08.859Z,7.10
2017-11-28T04:35:36.298Z,6.60
2017-11-28T04:38:04.643Z,7.00
2017-11-28T04:40:32.606Z,6.87
2017-11-28T04:43:00.471Z,6.83
2017-11-28T04:45:27.916Z,7.30
2017-11-28T04:47:55.429Z,6.57
2017-11-28T04:50:23.698Z,7.13
2017-11-28T04:52:52.046Z,8.03
2017-11-28T04:55:19.567Z,7.53
2017-11-28T04:57:47.771Z,7.87
2017-11-28T05:00:15.297Z,7.67
2017-11-28T05:02:42.756Z,7.13
2017-11-28T05:05:10.243Z,7.87
2017-11-28T05:07:37.765Z,9.20
2017-11-28T05:10:05.324Z,7.90
2017-11-28T05:12:32.765Z,7.87
2017-11-28T05:15:00.744Z,7.80
2017-11-28T05:17:28.319Z,8.03
2017-11-28T05:19:55.994Z,8.27
2017-11-28T05:22:23.469Z,7.50
2017-11-28T05:24:51.212Z,8.60
2017-11-28T05:27:18.674Z,8.27
2017-11-28T05:29:46.960Z,8.73
2017-11-28T05:32:14.437Z,8.67
2017-11-28T05:34:41.888Z,8.83
2017-11-28T05:37:09.367Z,9.50
2017-11-28T05:39:37.592Z,8.80
2017-11-28T05:42:05.566Z,10.40
2017-11-28T05:44:33.482Z,8.47
2017-11-28T05:47:02.038Z,9.23
2017-11-28T05:49:29.540Z,9.60
2017-11-28T05:51:56.995Z,9.60
2017-11-28T05:54:24.486Z,9.80
2017-11-28T05:56:52.013Z,8.53
2017-11-28T05:59:19.820Z,8.93
2017-11-28T06:01:47.290Z,9.30
2017-11-28T06:04:15.642Z,9.77
2017-11-28T06:06:43.098Z,9.00
2017-11-28T06:09:10.670Z,8.60
2017-11-28T06:11:39.369Z,8.87
2017-11-28T06:14:06.822Z,10.07
2017-11-28T06:16:34.633Z,8.33
2017-11-28T06:19:02.061Z,9.20
2017-11-28T06:21:30.705Z,9.30
2017-11-28T06:23:58.433Z,9.83
2017-11-28T06:26:25.893Z,8.80
2017-11-28T06:28:53.434Z,7.60
2017-11-28T06:31:20.982Z,8.80
2017-11-28T06:33:49.182Z,7.87
2017-11-28T06:36:16.732Z,8.50
2017-11-28T06:38:44.166Z,7.70
2017-11-28T06:41:12.805Z,6.93
2017-11-28T06:43:40.793Z,8.33
2017-11-28T06:46:08.232Z,7.43
2017-11-28T06:48:35.693Z,8.00
2017-11-28T06:51:03.431Z,9.40
2017-11-28T06:53:30.885Z,7.53
2017-11-28T06:55:58.440Z,7.50
2017-11-28T06:58:25.874Z,7.50
2017-11-28T07:00:53.687Z,7.90
2017-11-28T07:03:21.672Z,8.37
2017-11-28T07:05:49.216Z,7.23
2017-11-28T07:08:16.979Z,8.13
2017-11-28T07:10:45.039Z,7.20
2017-11-28T07:13:12.521Z,7.50
2017-11-28T07:15:40.274Z,7.13
2017-11-28T07:18:08.347Z,7.03
2017-11-28T07:20:35.811Z,8.00
2017-11-28T07:23:04.015Z,9.10
2017-11-28T07:25:32.766Z,7.13
2017-11-28T07:28:00.233Z,7.17
2017-11-28T07:30:27.683Z,7.07
2017-11-28T07:32:55.845Z,6.40
2017-11-28T07:35:23.301Z,6.20
2017-11-28T07:37:50.736Z,5.83
2017-11-28T07:40:18.735Z,5.70
2017-11-28T07:42:46.821Z,5.83
2017-11-28T07:45:15.052Z,5.70
2017-11-28T07:47:43.723Z,5.17
2017-11-28T07:50:11.162Z,5.07
2017-11-28T07:52:39.388Z,6.20
2017-11-28T07:55:06.811Z,4.90
2017-11-28T07:57:34.582Z,5.00
2017-11-28T08:00:02.534Z,6.20
2017-11-28T08:02:30.106Z,4.73
2017-11-28T08:04:57.798Z,5.13
2017-11-28T08:07:25.728Z,5.60
2017-11-28T08:09:53.183Z,5.77
2017-11-28T08:12:20.614Z,5.33
2017-11-28T08:14:48.823Z,5.93
2017-11-28T08:17:16.762Z,5.37
2017-11-28T08:19:44.205Z,5.60
2017-11-28T08:22:13.035Z,5.83
2017-11-28T08:24:40.830Z,5.47
2017-11-28T08:27:08.302Z,5.27
2017-11-28T08:29:35.778Z,6.30
2017-11-28T08:32:04.091Z,5.93
2017-11-28T08:34:31.569Z,5.50
2017-11-28T08:36:59.071Z,5.23
2017-11-28T08:39:27.312Z,5.57
2017-11-28T08:41:55.861Z,5.80
2017-11-28T08:44:23.590Z,5.30
2017-11-28T08:46:51.791Z,5.60
2017-11-28T08:49:19.354Z,6.00
2017-11-28T08:51:46.878Z,6.83
2017-11-28T08:54:15.330Z,5.20
2017-11-28T08:56:42.771Z,5.57
2017-11-28T08:59:10.525Z,5.53
2017-11-28T09:01:37.994Z,5.67
2017-11-28T09:04:06.232Z,5.20
2017-11-28T09:06:34.408Z,5.27
2017-11-28T09:09:01.881Z,6.23
2017-11-28T09:11:29.381Z,4.77
2017-11-28T09:13:57.333Z,5.50
2017-11-28T09:16:25.912Z,5.40
2017-11-28T09:18:53.677Z,5.70
2017-11-28T09:21:21.550Z,7.40
2017-11-28T09:23:49.682Z,6.23
2017-11-28T09:26:17.146Z,7.37
2017-11-28T09:28:44.699Z,6.33
2017-11-28T09:31:12.256Z,7.20
2017-11-28T09:33:39.843Z,7.27
2017-11-28T09:36:07.690Z,6.30
2017-11-28T09:38:35.274Z,6.30
2017-11-28T09:41:03.017Z,7.27
2017-11-28T09:43:32.029Z,7.13
2017-11-28T09:45:59.559Z,7.20
2017-11-28T09:48:27.029Z,6.43
2017-11-28T09:50:54.499Z,7.20
2017-11-28T09:53:21.953Z,6.60
2017-11-28T09:55:49.424Z,5.77
2017-11-28T09:58:16.901Z,6.10
2017-11-28T10:00:45.660Z,6.80
2017-11-28T10:03:13.101Z,4.93
2017-11-28T10:05:40.887Z,5.63
2017-11-28T10:08:08.338Z,6.30
2017-11-28T10:10:35.808Z,5.83
2017-11-28T10:13:03.266Z,6.03
2017-11-28T10:15:32.030Z,6.10
2017-11-28T10:18:00.015Z,6.60
2017-11-28T10:20:28.556Z,5.40
2017-11-28T10:22:55.986Z,6.23
2017-11-28T10:25:23.467Z,5.87
2017-11-28T10:27:51.055Z,5.20
2017-11-28T10:30:18.583Z,5.90
2017-11-28T10:32:46.139Z,5.40
2017-11-28T10:35:13.602Z,5.93
2017-11-28T10:37:41.363Z,5.33
2017-11-28T10:40:08.922Z,4.77
2017-11-28T10:42:37.437Z,5.57
2017-11-28T10:45:05.295Z,4.93
2017-11-28T10:47:32.769Z,5.10
2017-11-28T10:50:00.212Z,4.63
2017-11-28T10:52:27.667Z,5.20
2017-11-28T10:54:55.106Z,5.20
2017-11-28T10:57:22.618Z,5.33
2017-11-28T10:59:51.172Z,5.57
2017-11-28T11:02:18.620Z,5.37
2017-11-28T11:04:46.584Z,5.93
2017-11-28T11:07:14.023Z,6.10
2017-11-28T11:09:41.580Z,5.53
2017-11-28T11:12:09.106Z,5.77
2017-11-28T11:14:36.575Z,6.00
2017-11-28T11:17:04.374Z,5.57
2017-11-28T11:19:31.851Z,6.40
2017-11-28T11:21:59.786Z,6.30
2017-11-28T11:24:27.681Z,6.33
2017-11-28T11:26:56.114Z,5.90
2017-11-28T11:29:23.559Z,6.77
2017-11-28T11:31:51.035Z,7.10
2017-11-28T11:34:18.472Z,6.63
2017-11-28T11:36:45.945Z,7.03
2017-11-28T11:39:13.582Z,6.03
2017-11-28T11:41:41.268Z,6.30
2017-11-28T11:44:09.456Z,5.63
2017-11-28T11:46:37.212Z,6.43
2017-11-28T11:49:04.661Z,6.17
2017-11-28T11:51:32.385Z,6.10
2017-11-28T11:54:00.589Z,6.10
2017-11-28T11:56:28.702Z,5.70
2017-11-28T11:58:57.763Z,5.83
2017-11-28T12:01:25.230Z,5.40
2017-11-28T12:03:52.780Z,6.00
2017-11-28T12:06:20.338Z,5.87
2017-11-28T12:08:48.036Z,5.93
2017-11-28T12:11:15.659Z,5.50
2017-11-28T12:13:43.125Z,6.20
2017-11-28T12:16:12.337Z,6.30
2017-11-28T12:18:39.787Z,5.90
2017-11-28T12:21:07.243Z,5.60
2017-11-28T12:23:34.692Z,6.20
2017-11-28T12:26:02.253Z,6.53
2017-11-28T12:28:29.725Z,6.27
2017-11-28T12:30:57.192Z,6.27
2017-11-28T12:33:24.653Z,6.93
2017-11-28T12:35:52.199Z,6.43
2017-11-28T12:38:19.835Z,6.57
2017-11-28T12:40:47.837Z,6.07
2017-11-28T12:43:16.447Z,6.23
2017-11-28T12:45:44.654Z,6.00
2017-11-28T12:48:12.235Z,6.50
2017-11-28T12:50:40.018Z,6.00
2017-11-28T12:53:09.005Z,6.10
2017-11-28T12:55:36.553Z,6.23
2017-11-28T12:58:03.995Z,6.63
2017-11-28T13:00:31.686Z,6.00
2017-11-28T13:02:59.127Z,6.80
2017-11-28T13:05:26.593Z,5.80
2017-11-28T13:07:54.305Z,7.33
2017-11-28T13:10:21.770Z,6.40
2017-11-28T13:12:49.207Z,5.93
2017-11-28T13:15:17.444Z,6.23
2017-11-28T13:17:46.096Z,5.83
2017-11-28T13:20:14.507Z,5.63
2017-11-28T13:22:42.007Z,5.37
2017-11-28T13:25:10.412Z,5.80
2017-11-28T13:27:37.894Z,5.70
2017-11-28T13:30:05.373Z,8.10
2017-11-28T13:32:32.815Z,9.20
2017-11-28T13:35:00.573Z,6.00
2017-11-28T13:37:28.021Z,9.20
2017-11-28T13:39:56.826Z,6.37
2017-11-28T13:42:24.272Z,6.40
2017-11-28T13:44:52.243Z,6.93
2017-11-28T13:47:19.690Z,7.13
2017-11-28T13:49:47.150Z,7.07
2017-11-28T13:52:15.232Z,7.43
2017-11-28T13:54:42.697Z,7.20
2017-11-28T13:57:10.330Z,8.03
2017-11-28T13:59:37.777Z,7.00
2017-11-28T14:02:05.234Z,7.40
2017-11-28T14:04:32.726Z,8.07
2017-11-28T14:07:00.230Z,6.83
2017-11-28T14:09:27.932Z,7.23
2017-11-28T14:11:55.498Z,6.77
2017-11-28T14:14:22.938Z,6.37
2017-11-28T14:16:50.929Z,6.67
2017-11-28T14:19:18.399Z,6.30
2017-11-28T14:21:48.563Z,6.00
2017-11-28T14:24:29.946Z,7.43
2017-11-28T14:27:03.231Z,6.27
2017-11-28T14:29:43.600Z,6.43
2017-11-28T14:32:27.133Z,7.23
2017-11-28T14:34:55.050Z,5.97
2017-11-28T14:37:24.093Z,5.57
2017-11-28T14:39:51.650Z,4.77
2017-11-28T14:42:22.487Z,4.77
2017-11-28T14:45:08.975Z,5.10
2017-11-28T14:47:36.432Z,4.63
2017-11-28T14:50:04.159Z,5.50
2017-11-28T14:52:31.596Z,5.17
2017-11-28T14:55:14.751Z,5.50
2017-11-28T14:57:53.864Z,5.07
2017-11-28T15:00:27.051Z,5.60
2017-11-28T15:03:00.190Z,5.83
2017-11-28T15:05:33.311Z,7.07
2017-11-28T15:08:06.398Z,6.20
2017-11-28T15:10:49.937Z,6.43
2017-11-28T15:13:24.990Z,6.33
2017-11-28T15:15:58.997Z,6.30
2017-11-28T15:18:44.553Z,6.97
2017-11-28T15:21:30.721Z,7.00
2017-11-28T15:24:09.951Z,7.20
2017-11-28T15:26:37.396Z,7.23
2017-11-28T15:29:20.610Z,7.63
2017-11-28T15:31:48.819Z,7.63
2017-11-28T15:34:16.339Z,7.37
2017-11-28T15:36:45.186Z,7.07
2017-11-28T15:39:12.680Z,7.27
2017-11-28T15:41:41.031Z,7.17
2017-11-28T15:44:08.732Z,7.40
2017-11-28T15:46:37.370Z,6.70
2017-11-28T15:49:04.867Z,7.70
2017-11-28T15:51:33.070Z,8.00
2017-11-28T15:54:00.681Z,8.93
2017-11-28T15:56:28.333Z,7.67
2017-11-28T15:58:55.795Z,8.63
2017-11-28T16:01:23.415Z,7.87
2017-11-28T16:03:51.176Z,8.03
2017-11-28T16:06:19.086Z,8.97
2017-11-28T16:08:46.606Z,8.63
2017-11-28T16:11:14.055Z,9.50
2017-11-28T16:13:42.062Z,9.20
2017-11-28T16:16:09.521Z,9.00
2017-11-28T16:18:37.186Z,9.93
2017-11-28T16:21:04.630Z,9.30
2017-11-28T16:23:32.261Z,9.87
2017-11-28T16:26:00.467Z,10.13
2017-11-28T16:28:28.012Z,8.10
2017-11-28T16:30:55.559Z,8.97
2017-11-28T16:33:23.116Z,9.00
2017-11-28T16:35:51.013Z,8.40
2017-11-28T16:38:18.516Z,10.33
2017-11-28T16:40:45.964Z,8.60
2017-11-28T16:43:14.714Z,8.70
2017-11-28T16:45:42.747Z,9.10
2017-11-28T16:48:10.184Z,9.70
2017-11-28T16:50:38.419Z,8.23
2017-11-28T16:53:05.888Z,10.00
2017-11-28T16:55:33.532Z,9.90
2017-11-28T16:58:00.970Z,9.40
2017-11-28T17:00:28.502Z,10.00
2017-11-28T17:02:55.941Z,8.80
2017-11-28T17:05:23.488Z,9.80
2017-11-28T17:07:51.718Z,8.83
2017-11-28T17:10:19.164Z,9.77
2017-11-28T17:12:46.634Z,54.40
2017-11-28T17:15:14.085Z,59.17
2017-11-28T17:17:42.345Z,10.67
2017-11-28T17:20:09.902Z,9.80
2017-11-28T17:22:37.563Z,8.80
2017-11-28T17:25:05.496Z,9.27
2017-11-28T17:27:33.807Z,9.03
2017-11-28T17:30:01.384Z,9.83
2017-11-28T17:32:29.409Z,9.93
2017-11-28T17:34:57.702Z,9.23
2017-11-28T17:37:25.182Z,9.60
2017-11-28T17:39:52.846Z,10.77
2017-11-28T17:42:20.662Z,8.80
2017-11-28T17:44:49.427Z,9.37
2017-11-28T17:47:16.938Z,8.83
2017-11-28T17:49:44.467Z,9.60
2017-11-28T17:52:12.827Z,10.17
2017-11-28T17:54:40.508Z,9.47
2017-11-28T17:57:08.970Z,9.90
2017-11-28T17:59:36.502Z,9.93
2017-11-28T18:02:03.971Z,9.63
2017-11-28T18:04:31.553Z,11.10
2017-11-28T18:07:00.020Z,9.00
2017-11-28T18:09:27.479Z,9.87
2017-11-28T18:11:55.702Z,9.47
2017-11-28T18:14:23.801Z,10.47
2017-11-28T18:16:51.992Z,10.97
2017-11-28T18:19:19.655Z,10.17
2017-11-28T18:21:47.712Z,35.87
2017-11-28T18:24:15.221Z,9.47
2017-11-28T18:26:42.671Z,9.60
2017-11-28T18:29:10.158Z,10.93
2017-11-28T18:31:37.624Z,10.40
2017-11-28T18:34:05.126Z,9.97
2017-11-28T18:36:33.584Z,11.17
2017-11-28T18:39:01.566Z,13.30
2017-11-28T18:41:29.798Z,13.37
2017-11-28T18:43:57.966Z,9.47
2017-11-28T18:46:25.462Z,9.70
2017-11-28T18:48:52.976Z,12.27
2017-11-28T18:51:20.713Z,9.77
2017-11-28T18:53:48.153Z,9.30
2017-11-28T18:56:16.649Z,9.30
2017-11-28T18:58:44.859Z,8.97
2017-11-28T19:01:12.589Z,10.63
2017-11-28T19:03:40.888Z,10.77
2017-11-28T19:06:08.332Z,15.20
2017-11-28T19:08:35.939Z,10.47
2017-11-28T19:11:03.461Z,10.30
2017-11-28T19:13:30.955Z,11.03
2017-11-28T19:15:58.929Z,9.30
2017-11-28T19:18:26.835Z,10.40
2017-11-28T19:20:55.049Z,10.53
2017-11-28T19:23:22.529Z,21.00
2017-11-28T19:25:50.963Z,28.53
2017-11-28T19:28:18.483Z,14.37
2017-11-28T19:30:46.803Z,12.67
2017-11-28T19:33:14.528Z,11.90
2017-11-28T19:35:42.743Z,11.13
2017-11-28T19:38:10.590Z,12.93
2017-11-28T19:40:38.190Z,11.80
2017-11-28T19:43:05.983Z,9.20
2017-11-28T19:45:34.265Z,15.90
2017-11-28T19:48:02.487Z,12.97
2017-11-28T19:50:29.983Z,10.70
2017-11-28T19:52:58.219Z,12.40
2017-11-28T19:55:25.766Z,12.83
2017-11-28T19:57:53.454Z,12.30
2017-11-28T20:00:21.271Z,11.20
2017-11-28T20:02:48.984Z,13.93
2017-11-28T20:05:16.653Z,12.57
2017-11-28T20:07:44.196Z,11.63
2017-11-28T20:10:11.727Z,11.07
2017-11-28T20:12:39.418Z,12.13
2017-11-28T20:15:07.007Z,12.40
2017-11-28T20:17:35.792Z,12.67
2017-11-28T20:20:04.124Z,10.77
2017-11-28T20:22:31.675Z,10.80
2017-11-28T20:24:59.148Z,10.23
2017-11-28T20:27:26.625Z,10.53
2017-11-28T20:29:54.420Z,10.93
2017-11-28T20:32:22.127Z,11.20
2017-11-28T20:34:50.189Z,10.80
2017-11-28T20:37:17.645Z,9.43
2017-11-28T20:39:45.172Z,10.47
2017-11-28T20:42:13.584Z,11.13
2017-11-28T20:44:41.548Z,9.57
2017-11-28T20:47:09.018Z,9.30
2017-11-28T20:49:36.563Z,10.10
2017-11-28T20:52:04.791Z,10.50
2017-11-28T20:54:33.097Z,10.47
2017-11-28T20:57:01.396Z,9.67
2017-11-28T20:59:28.972Z,10.23
2017-11-28T21:01:56.448Z,10.47
2017-11-28T21:04:23.908Z,10.50
2017-11-28T21:06:51.523Z,10.30
2017-11-28T21:09:19.043Z,8.40
2017-11-28T21:11:47.263Z,9.97
2017-11-28T21:14:14.992Z,11.00
2017-11-28T21:16:43.437Z,10.93
2017-11-28T21:19:11.312Z,9.60
2017-11-28T21:21:39.951Z,9.80
2017-11-28T21:24:07.506Z,10.23
2017-11-28T21:26:34.971Z,10.80
2017-11-28T21:29:02.483Z,10.70
2017-11-28T21:31:31.160Z,9.80
2017-11-28T21:33:58.634Z,10.10
2017-11-28T21:36:27.045Z,10.93
2017-11-28T21:38:56.161Z,10.90
2017-11-28T21:41:23.697Z,9.30
2017-11-28T21:43:51.682Z,11.07
2017-11-28T21:46:19.512Z,10.57
2017-11-28T21:48:47.292Z,10.67
2017-11-28T21:51:14.851Z,10.20
2017-11-28T21:53:42.298Z,9.77
2017-11-28T21:56:09.747Z,11.10
2017-11-28T21:58:37.364Z,11.17
2017-11-28T22:01:04.829Z,11.17
2017-11-28T22:03:32.497Z,11.30
2017-11-28T22:06:00.824Z,11.47
2017-11-28T22:08:28.434Z,10.97
2017-11-28T22:10:55.875Z,11.67
2017-11-28T22:13:23.405Z,10.03
2017-11-28T22:15:50.844Z,11.80
2017-11-28T22:18:18.706Z,10.20
2017-11-28T22:20:46.148Z,11.40
2017-11-28T22:23:13.767Z,10.67
2017-11-28T22:25:41.223Z,10.50
2017-11-28T22:28:08.675Z,10.90
2017-11-28T22:30:36.845Z,10.50
2017-11-28T22:33:04.995Z,11.50
2017-11-28T22:35:32.460Z,10.90
2017-11-28T22:37:59.915Z,11.00
2017-11-28T22:40:27.437Z,10.87
2017-11-28T22:42:56.214Z,11.70
2017-11-28T22:45:24.430Z,10.87
2017-11-28T22:47:51.915Z,12.60
2017-11-28T22:50:19.396Z,10.73
2017-11-28T22:52:46.925Z,11.07
2017-11-28T22:55:14.363Z,10.03
2017-11-28T22:57:41.880Z,11.70
2017-11-28T23:00:10.103Z,11.53
2017-11-28T23:02:37.613Z,11.07
2017-11-28T23:05:05.952Z,11.83
2017-11-28T23:07:33.422Z,11.07
2017-11-28T23:10:00.891Z,12.50
2017-11-28T23:12:29.469Z,12.23
2017-11-28T23:14:56.948Z,12.97
2017-11-28T23:17:25.202Z,10.90
2017-11-28T23:19:53.065Z,13.03
2017-11-28T23:22:20.760Z,12.50
2017-11-28T23:24:48.227Z,11.57
2017-11-28T23:27:16.464Z,12.83
2017-11-28T23:29:43.916Z,12.30
2017-11-28T23:32:11.402Z,11.90
2017-11-28T23:34:39.628Z,13.13
2017-11-28T23:37:07.111Z,10.10
2017-11-28T23:39:35.172Z,12.00
2017-11-28T23:42:02.670Z,12.00
2017-11-28T23:44:30.672Z,10.30
2017-11-28T23:46:58.164Z,11.60
2017-11-28T23:49:25.633Z,10.80
2017-11-28T23:51:53.893Z,11.77
2017-11-28T23:54:22.203Z,11.03
2017-11-28T23:56:49.677Z,11.87
2017-11-28T23:59:17.349Z,11.10
